• Join FlightAware (Why Join?)
  • Login
  • US Flag 
09:22PM EST


 

Airport Tracker/Info


-or-


 

Live Flight TrackerFlight Track Log ✈ USC105 ✈ 03-Jul-2013 ✈ KYIP - KDPA

Flight Track Log - Related Links

Times and Time Zones

All times are in EDT time to prevent confusion due to time zone crossing. See the USC105 flight status page for this flight to view local times or setup timezone preferences in your user account.

Time Position Orientation Groundspeed Altitude Reporting Facility
EDT Latitude Longitude Course Direction KTS MPH feet Rate Location/Type
12:10AM 42.2400 -83.5731 268° West 123 142 1,700  Level Cleveland Center
12:11AM 42.2344 -83.6206 261° West 123 142 2,800 1,020 Climbing Cleveland Center
12:12AM 42.2333 -83.6681 268° West 128 147 3,800 960 Climbing Cleveland Center
12:13AM 42.2300 -83.7156 265° West 127 146 4,800 1,020 Climbing Cleveland Center
12:14AM 42.2264 -83.7631 264° West 128 147 5,900 540 Climbing Cleveland Center
12:15AM 42.2250 -83.8192 268° West 171 197 6,000  Climbing Cleveland Center
12:16AM 42.2231 -83.8836 268° West 170 196 6,000  Level Cleveland Center
12:17AM 42.2200 -83.9811 268° West 174 200 6,100  Climbing Chicago Center
12:18AM 42.2147 -84.0492 264° West 179 206 6,100 -60 Level Chicago Center
12:19AM 42.2100 -84.1197 265° West 183 211 6,000 -60 Descending Chicago Center
12:20AM 42.2053 -84.1869 265° West 181 208 6,000  Level Chicago Center
12:21AM 42.2025 -84.2564 267° West 184 212 6,000  Level Chicago Center
12:22AM 42.1986 -84.3247 266° West 184 212 6,000  Level Chicago Center
12:23AM 42.1944 -84.3917 265° West 181 208 6,100  Climbing Chicago Center
12:24AM 42.1911 -84.4603 266° West 183 211 6,000  Descending Chicago Center
12:25AM 42.1869 -84.5386 266° West 182 209 6,100  Climbing Chicago Center
12:26AM 42.1825 -84.6075 265° West 184 212 6,100 -60 Level Chicago Center
12:27AM 42.1783 -84.6750 265° West 183 211 6,000  Descending Chicago Center
12:28AM 42.1742 -84.7417 265° West 181 208 6,100  Climbing Chicago Center
12:29AM 42.1703 -84.8089 266° West 181 208 6,100  Level Chicago Center
12:30AM 42.1656 -84.8753 265° West 179 206 6,100 -60 Level Chicago Center
12:31AM 42.1622 -84.9431 266° West 181 208 6,000 -60 Descending Chicago Center
12:32AM 42.1581 -85.0103 265° West 182 209 6,000  Level Chicago Center
12:34AM 42.1542 -85.0769 266° West 181 208 6,000  Level Chicago Center
12:35AM 42.1489 -85.1433 264° West 180 207 6,100  Climbing Chicago Center
12:36AM 42.1453 -85.2097 266° West 179 206 6,000 -60 Descending Chicago Center
12:37AM 42.1406 -85.2744 264° West 177 204 6,000  Level Chicago Center
12:38AM 42.1361 -85.3406 265° West 177 204 6,000  Level Chicago Center
12:39AM 42.1325 -85.4064 266° West 178 205 6,000  Level Chicago Center
12:40AM 42.1261 -85.4847 264° West 177 204 6,100  Climbing Chicago Center
12:41AM 42.1219 -85.5517 265° West 179 206 6,000  Descending Chicago Center
12:42AM 42.1183 -85.6175 266° West 178 205 6,100  Climbing Chicago Center
12:43AM 42.1131 -85.6833 264° West 178 205 6,100  Level Chicago Center
12:44AM 42.1086 -85.7492 265° West 177 204 6,100 -60 Level Chicago Center
12:45AM 42.1047 -85.8147 265° West 177 204 6,000  Descending Chicago Center
12:46AM 42.0997 -85.8817 264° West 179 206 6,100  Climbing Chicago Center
12:47AM 42.0950 -85.9483 265° West 179 206 6,100 -60 Level Chicago Center
12:48AM 42.0892 -86.0156 263° West 180 207 6,000  Descending Chicago Center
12:49AM 42.0853 -86.0828 266° West 181 208 6,100  Climbing Chicago Center
12:50AM 42.0808 -86.1500 265° West 181 208 6,100  Level Chicago Center
12:51AM 42.0747 -86.2164 263° West 180 207 6,100 -60 Level Chicago Center
12:52AM 42.0694 -86.2842 264° West 183 211 6,000 -60 Descending Chicago Center
12:53AM 42.0658 -86.3525 266° West 183 211 6,000  Level Chicago Center
12:54AM 42.0600 -86.4189 263° West 181 208 6,000  Level Chicago Center
12:55AM 42.0553 -86.4864 265° West 181 208 6,000  Level Chicago Center
12:56AM 42.0494 -86.5558 264° West 185 213 6,100  Climbing Chicago Center
12:57AM 42.0439 -86.6236 264° West 184 212 6,000 -60 Descending Chicago Center
12:58AM 42.0394 -86.6908 265° West 183 211 6,000  Level Chicago Center
12:59AM 42.0333 -86.7661 264° West 179 206 6,000  Level Chicago Center
01:00AM 42.0289 -86.8333 265° West 181 208 6,100  Climbing Chicago Center
01:01AM 42.0231 -86.9006 263° West 181 208 6,100 -60 Level Chicago Center
01:02AM 42.0175 -86.9675 264° West 181 208 6,000  Descending Chicago Center
01:03AM 42.0131 -87.0333 265° West 179 206 6,100  Climbing Chicago Center
01:04AM 42.0069 -87.1014 263° West 183 211 6,000 -60 Descending Chicago Center
01:05AM 42.0011 -87.1672 263° West 180 207 6,000  Level Chicago Center
01:06AM 41.9956 -87.2339 264° West 181 208 6,000 -60 Level Chicago Center
01:07AM 41.9906 -87.3017 264° West 182 209 5,900 -60 Descending Chicago Center
01:08AM 41.9844 -87.3672 263° West 180 207 5,900  Level Chicago Center
01:09AM 41.9786 -87.4336 263° West 180 207 5,900  Level Chicago Center
01:10AM 41.9731 -87.5000 264° West 179 206 6,000  Climbing Chicago Center
01:11AM 41.9658 -87.5811 263° West 183 211 6,000 -60 Level Chicago Center
01:12AM 41.9594 -87.6478 263° West 182 209 5,900 -60 Descending Chicago Center
01:13AM 41.9550 -87.7158 265° West 184 212 5,900 -300 Level Chicago Center
01:14AM 41.9481 -87.7839 262° West 184 212 5,300 -720 Descending Chicago Center
01:15AM 41.9408 -87.8569 262° West 192 221 4,500 -840 Descending Chicago Center
01:16AM 41.9361 -87.9283 265° West 195 224 3,700 -720 Descending Chicago Center
01:17AM 41.9317 -87.9969 265° West 192 221 3,100 -600 Descending Chicago Center
01:18AM 41.9328 -88.0608 271° West 184 212 2,600 -480 Descending Chicago Center
01:19AM 41.9347 -88.1233 272° West 176 203 2,200 -360 Descending Chicago Center
01:20AM 41.9353 -88.1806 271° West 166 191 1,900 -480 Descending Chicago Center
01:21AM 41.9344 -88.2306 269° West 154 177 1,300 -480 Descending Chicago Center
01:22AM 41.9022 -88.2514 206° Southwest 140 161 1,000 -300 Descending Chicago Center